AFR37FA LFPG-LFMN
Flight info
| Callsign | AFR37FA |
|---|---|
| Flight time | 1h 15m |
| Altitude | 37000 |
| Route | LATRA DCT LAMUT DCT UTUVA DCT LERGA DCT LIQID DCT LATAM DCT TUNUR DCT NISAR |
| Aircraft | A320/M-SDE2E3FGIJ1RWY/HB1 |
Departure
| Time | 2026-05-07 20:01 |
|---|---|
| Airport | Charles de Gaulle International Airport (LFPG) |
Arrival
| Time | 2026-05-07 21:16 |
|---|---|
| Airport | Nice-Côte d'Azur Airport (LFMN) |
| Time | Latitude | Longitude | Altitude | Speed | Heading |
|---|---|---|---|---|---|
| 2026-05-07 19:13 | 49.00618 | 2.57327 | 358 ft | 0 kts | 85° |
| 2026-05-07 19:52 | 49.00618 | 2.57317 | 354 ft | 3 kts | 84° |
| 2026-05-07 19:52 | 49.00615 | 2.57287 | 354 ft | 3 kts | 76° |
| 2026-05-07 19:52 | 49.00609 | 2.57259 | 354 ft | 3 kts | 52° |
| 2026-05-07 19:52 | 49.00597 | 2.57243 | 361 ft | 3 kts | 1° |
| 2026-05-07 19:53 | 49.00592 | 2.57242 | 358 ft | 0 kts | 354° |
| 2026-05-07 19:55 | 49.00614 | 2.57239 | 354 ft | 6 kts | 354° |
| 2026-05-07 19:55 | 49.00671 | 2.57203 | 358 ft | 11 kts | 308° |
| 2026-05-07 19:56 | 49.00664 | 2.57060 | 362 ft | 17 kts | 256° |
| 2026-05-07 19:56 | 49.00648 | 2.56855 | 357 ft | 22 kts | 266° |
| 2026-05-07 19:56 | 49.00634 | 2.56596 | 359 ft | 26 kts | 265° |
| 2026-05-07 19:56 | 49.00620 | 2.56320 | 359 ft | 26 kts | 265° |
| 2026-05-07 19:57 | 49.00595 | 2.56044 | 354 ft | 26 kts | 252° |
| 2026-05-07 19:57 | 49.00564 | 2.55768 | 355 ft | 26 kts | 266° |
| 2026-05-07 19:57 | 49.00549 | 2.55488 | 361 ft | 27 kts | 265° |
| 2026-05-07 19:57 | 49.00439 | 2.55336 | 354 ft | 23 kts | 166° |
| 2026-05-07 19:58 | 49.00279 | 2.55402 | 356 ft | 25 kts | 164° |
| 2026-05-07 19:58 | 49.00108 | 2.55478 | 358 ft | 27 kts | 164° |
| 2026-05-07 19:58 | 48.99952 | 2.55545 | 361 ft | 22 kts | 160° |
| 2026-05-07 19:58 | 48.99841 | 2.55704 | 354 ft | 23 kts | 111° |
| 2026-05-07 19:59 | 48.99725 | 2.55811 | 354 ft | 22 kts | 174° |
| 2026-05-07 19:59 | 48.99608 | 2.55827 | 356 ft | 6 kts | 169° |
| 2026-05-07 19:59 | 48.99602 | 2.55870 | 355 ft | 3 kts | 83° |
| 2026-05-07 19:59 | 48.99602 | 2.55874 | 355 ft | 0 kts | 84° |
| 2026-05-07 20:01 | 48.99611 | 2.56021 | 354 ft | 49 kts | 85° |
| 2026-05-07 20:01 | 48.99658 | 2.56908 | 361 ft | 117 kts | 85° |
| 2026-05-07 20:01 | 48.99737 | 2.58414 | 443 ft | 159 kts | 84° |
| 2026-05-07 20:01 | 48.99820 | 2.60055 | 1263 ft | 154 kts | 86° |
| 2026-05-07 20:02 | 48.99901 | 2.61674 | 2048 ft | 153 kts | 86° |
| 2026-05-07 20:02 | 48.99985 | 2.63283 | 2786 ft | 153 kts | 86° |
| 2026-05-07 20:02 | 49.00067 | 2.64901 | 3475 ft | 154 kts | 85° |
| 2026-05-07 20:02 | 49.00153 | 2.66607 | 3919 ft | 172 kts | 85° |
| 2026-05-07 20:03 | 49.00255 | 2.68530 | 4288 ft | 193 kts | 85° |
| 2026-05-07 20:03 | 49.00374 | 2.70695 | 4623 ft | 218 kts | 85° |
| 2026-05-07 20:03 | 49.00495 | 2.73123 | 5100 ft | 241 kts | 85° |
| 2026-05-07 20:03 | 49.00632 | 2.75792 | 5613 ft | 264 kts | 85° |
| 2026-05-07 20:04 | 49.00671 | 2.78638 | 6389 ft | 275 kts | 97° |
| 2026-05-07 20:04 | 49.00372 | 2.81540 | 7272 ft | 280 kts | 99° |
| 2026-05-07 20:04 | 49.00056 | 2.84494 | 8161 ft | 286 kts | 100° |
| 2026-05-07 20:04 | 48.99732 | 2.87512 | 9040 ft | 292 kts | 100° |
| 2026-05-07 20:05 | 48.99399 | 2.90595 | 9915 ft | 298 kts | 100° |
| 2026-05-07 20:05 | 48.99057 | 2.93784 | 10475 ft | 316 kts | 100° |
| 2026-05-07 20:05 | 48.98604 | 2.97166 | 10848 ft | 335 kts | 110° |
| 2026-05-07 20:05 | 48.97509 | 3.00316 | 11532 ft | 340 kts | 130° |
| 2026-05-07 20:06 | 48.95751 | 3.02696 | 12328 ft | 340 kts | 152° |
| 2026-05-07 20:06 | 48.93542 | 3.03897 | 13138 ft | 338 kts | 174° |
| 2026-05-07 20:06 | 48.91225 | 3.03980 | 13933 ft | 339 kts | 183° |
| 2026-05-07 20:06 | 48.88851 | 3.03901 | 14655 ft | 343 kts | 184° |
| 2026-05-07 20:07 | 48.86456 | 3.03809 | 15355 ft | 346 kts | 184° |
| 2026-05-07 20:07 | 48.84005 | 3.03715 | 16062 ft | 350 kts | 184° |
| 2026-05-07 20:07 | 48.81591 | 3.03628 | 16754 ft | 353 kts | 184° |
| 2026-05-07 20:07 | 48.79118 | 3.03542 | 17463 ft | 357 kts | 184° |
| 2026-05-07 20:08 | 48.76586 | 3.03459 | 18150 ft | 361 kts | 184° |
| 2026-05-07 20:08 | 48.74061 | 3.03377 | 18771 ft | 365 kts | 184° |
| 2026-05-07 20:08 | 48.71514 | 3.03295 | 19369 ft | 368 kts | 184° |
| 2026-05-07 20:08 | 48.68944 | 3.03218 | 19964 ft | 371 kts | 184° |
| 2026-05-07 20:09 | 48.66350 | 3.03142 | 20563 ft | 374 kts | 184° |
| 2026-05-07 20:09 | 48.63740 | 3.03062 | 21152 ft | 377 kts | 184° |
| 2026-05-07 20:09 | 48.61107 | 3.02977 | 21722 ft | 380 kts | 184° |
| 2026-05-07 20:10 | 48.56108 | 3.00989 | 22819 ft | 378 kts | 214° |
| 2026-05-07 20:10 | 48.53922 | 2.98772 | 23369 ft | 380 kts | 216° |
| 2026-05-07 20:10 | 48.51738 | 2.96497 | 23876 ft | 383 kts | 216° |
| 2026-05-07 20:10 | 48.49546 | 2.94193 | 24334 ft | 385 kts | 216° |
| 2026-05-07 20:11 | 48.47345 | 2.91875 | 24793 ft | 387 kts | 216° |
| 2026-05-07 20:11 | 48.45128 | 2.89544 | 25245 ft | 390 kts | 216° |
| 2026-05-07 20:11 | 48.42892 | 2.87209 | 25695 ft | 392 kts | 216° |
| 2026-05-07 20:11 | 48.40640 | 2.84872 | 26130 ft | 394 kts | 216° |
| 2026-05-07 20:12 | 48.38370 | 2.82527 | 26564 ft | 397 kts | 216° |
| 2026-05-07 20:12 | 48.36088 | 2.80177 | 26998 ft | 399 kts | 216° |
| 2026-05-07 20:12 | 48.33795 | 2.77818 | 27423 ft | 401 kts | 216° |
| 2026-05-07 20:12 | 48.31491 | 2.75438 | 27836 ft | 403 kts | 216° |
| 2026-05-07 20:13 | 48.29174 | 2.73045 | 28258 ft | 405 kts | 216° |
| 2026-05-07 20:13 | 48.26840 | 2.70640 | 28665 ft | 408 kts | 216° |
| 2026-05-07 20:13 | 48.24493 | 2.68229 | 29069 ft | 410 kts | 216° |
| 2026-05-07 20:13 | 48.22137 | 2.65804 | 29470 ft | 412 kts | 216° |
| 2026-05-07 20:14 | 48.19764 | 2.63362 | 29873 ft | 414 kts | 216° |
| 2026-05-07 20:14 | 48.17381 | 2.60915 | 30227 ft | 416 kts | 216° |
| 2026-05-07 20:14 | 48.14986 | 2.58463 | 30558 ft | 418 kts | 216° |
| 2026-05-07 20:14 | 48.12581 | 2.56004 | 30878 ft | 419 kts | 216° |
| 2026-05-07 20:15 | 48.10169 | 2.53538 | 31185 ft | 421 kts | 216° |
| 2026-05-07 20:15 | 48.07704 | 2.51153 | 31482 ft | 424 kts | 210° |
| 2026-05-07 20:15 | 48.04949 | 2.49527 | 31797 ft | 429 kts | 196° |
| 2026-05-07 20:15 | 48.01978 | 2.49013 | 32196 ft | 433 kts | 181° |
| 2026-05-07 20:16 | 47.98998 | 2.49808 | 32608 ft | 440 kts | 165° |
| 2026-05-07 20:16 | 47.96120 | 2.51372 | 32986 ft | 440 kts | 163° |
| 2026-05-07 20:16 | 47.93262 | 2.52998 | 33385 ft | 440 kts | 163° |
| 2026-05-07 20:16 | 47.90410 | 2.54653 | 33773 ft | 440 kts | 163° |
| 2026-05-07 20:17 | 47.87561 | 2.56311 | 34127 ft | 440 kts | 163° |
| 2026-05-07 20:17 | 47.84749 | 2.57931 | 34441 ft | 439 kts | 163° |
| 2026-05-07 20:17 | 47.81893 | 2.59552 | 34752 ft | 439 kts | 163° |
| 2026-05-07 20:17 | 47.79039 | 2.61157 | 35050 ft | 439 kts | 163° |
| 2026-05-07 20:18 | 47.76180 | 2.62760 | 35318 ft | 439 kts | 163° |
| 2026-05-07 20:18 | 47.73323 | 2.64358 | 35593 ft | 439 kts | 163° |
| 2026-05-07 20:18 | 47.70465 | 2.65959 | 35895 ft | 439 kts | 163° |
| 2026-05-07 20:18 | 47.67607 | 2.67561 | 36165 ft | 439 kts | 163° |
| 2026-05-07 20:19 | 47.64748 | 2.69162 | 36432 ft | 439 kts | 163° |
| 2026-05-07 20:19 | 47.61889 | 2.70761 | 36683 ft | 439 kts | 163° |
| 2026-05-07 20:19 | 47.59035 | 2.72360 | 36926 ft | 439 kts | 163° |
| 2026-05-07 20:19 | 47.56176 | 2.73961 | 37027 ft | 438 kts | 163° |
| 2026-05-07 20:20 | 47.53334 | 2.75550 | 37035 ft | 436 kts | 163° |
| 2026-05-07 20:20 | 47.47672 | 2.78702 | 37032 ft | 434 kts | 163° |
| 2026-05-07 20:21 | 47.42010 | 2.81833 | 37032 ft | 434 kts | 163° |
| 2026-05-07 20:21 | 47.36356 | 2.84969 | 37032 ft | 434 kts | 163° |
| 2026-05-07 20:22 | 47.30706 | 2.88097 | 37027 ft | 434 kts | 163° |
| 2026-05-07 20:22 | 47.25054 | 2.91209 | 37015 ft | 434 kts | 163° |
| 2026-05-07 20:23 | 47.19402 | 2.94315 | 37015 ft | 434 kts | 163° |
| 2026-05-07 20:23 | 47.13750 | 2.97423 | 37008 ft | 434 kts | 163° |
| 2026-05-07 20:24 | 47.08050 | 3.00285 | 37017 ft | 431 kts | 167° |
| 2026-05-07 20:24 | 47.02271 | 3.02597 | 37019 ft | 430 kts | 169° |
| 2026-05-07 20:25 | 46.97458 | 3.04427 | 37020 ft | 430 kts | 169° |
| 2026-05-07 20:25 | 46.91678 | 3.06715 | 37005 ft | 430 kts | 168° |
| 2026-05-07 20:26 | 46.85913 | 3.09098 | 37011 ft | 430 kts | 168° |
| 2026-05-07 20:26 | 46.80154 | 3.11489 | 37015 ft | 430 kts | 168° |
| 2026-05-07 20:27 | 46.74391 | 3.13853 | 37017 ft | 430 kts | 168° |
| 2026-05-07 20:27 | 46.68622 | 3.16189 | 37014 ft | 430 kts | 168° |
| 2026-05-07 20:28 | 46.62858 | 3.18519 | 37015 ft | 430 kts | 168° |
| 2026-05-07 20:28 | 46.57092 | 3.20854 | 37013 ft | 430 kts | 168° |
| 2026-05-07 20:29 | 46.51325 | 3.23178 | 36991 ft | 430 kts | 168° |
| 2026-05-07 20:29 | 46.45561 | 3.25504 | 37001 ft | 430 kts | 168° |
| 2026-05-07 20:30 | 46.39775 | 3.27829 | 37177 ft | 434 kts | 168° |
| 2026-05-07 20:30 | 46.36864 | 3.29004 | 37400 ft | 435 kts | 168° |
| 2026-05-07 20:30 | 46.33946 | 3.30180 | 37635 ft | 435 kts | 168° |
| 2026-05-07 20:30 | 46.31031 | 3.31349 | 37870 ft | 435 kts | 168° |
| 2026-05-07 20:31 | 46.28116 | 3.32518 | 38126 ft | 435 kts | 168° |
| 2026-05-07 20:31 | 46.25206 | 3.33682 | 38379 ft | 434 kts | 168° |
| 2026-05-07 20:31 | 46.22292 | 3.34846 | 38637 ft | 434 kts | 168° |
| 2026-05-07 20:31 | 46.19381 | 3.36008 | 38839 ft | 434 kts | 168° |
| 2026-05-07 20:32 | 46.16473 | 3.37167 | 38979 ft | 435 kts | 168° |
| 2026-05-07 20:32 | 46.10629 | 3.39491 | 39010 ft | 436 kts | 168° |
| 2026-05-07 20:33 | 46.04784 | 3.41813 | 39016 ft | 436 kts | 168° |
| 2026-05-07 20:33 | 45.98940 | 3.44121 | 39014 ft | 436 kts | 168° |
| 2026-05-07 20:34 | 45.93095 | 3.46431 | 39011 ft | 436 kts | 168° |
| 2026-05-07 20:34 | 45.87288 | 3.48724 | 39007 ft | 436 kts | 168° |
| 2026-05-07 20:35 | 45.81452 | 3.51115 | 39012 ft | 436 kts | 167° |
| 2026-05-07 20:35 | 45.75645 | 3.53668 | 39013 ft | 437 kts | 166° |
| 2026-05-07 20:36 | 45.69834 | 3.56230 | 39014 ft | 437 kts | 167° |
| 2026-05-07 20:36 | 45.64016 | 3.58728 | 39017 ft | 437 kts | 167° |
| 2026-05-07 20:37 | 45.58196 | 3.61197 | 39020 ft | 436 kts | 167° |
| 2026-05-07 20:37 | 45.52375 | 3.63676 | 39025 ft | 437 kts | 167° |
| 2026-05-07 20:38 | 45.46554 | 3.66175 | 39019 ft | 437 kts | 167° |
| 2026-05-07 20:38 | 45.40733 | 3.68659 | 39027 ft | 437 kts | 167° |
| 2026-05-07 20:39 | 45.34909 | 3.71128 | 39016 ft | 437 kts | 167° |
| 2026-05-07 20:39 | 45.29141 | 3.73890 | 39015 ft | 441 kts | 157° |
| 2026-05-07 20:39 | 45.26503 | 3.76149 | 39018 ft | 446 kts | 146° |
| 2026-05-07 20:40 | 45.24182 | 3.79101 | 39024 ft | 451 kts | 135° |
| 2026-05-07 20:40 | 45.20563 | 3.86441 | 39004 ft | 456 kts | 126° |
| 2026-05-07 20:41 | 45.17121 | 3.93997 | 39004 ft | 457 kts | 126° |
| 2026-05-07 20:41 | 45.13652 | 4.01547 | 39007 ft | 457 kts | 126° |
| 2026-05-07 20:42 | 45.10186 | 4.09097 | 39016 ft | 458 kts | 126° |
| 2026-05-07 20:42 | 45.06718 | 4.16660 | 39023 ft | 458 kts | 126° |
| 2026-05-07 20:43 | 45.03177 | 4.24137 | 39018 ft | 455 kts | 133° |
| 2026-05-07 20:43 | 44.98941 | 4.30738 | 39013 ft | 454 kts | 136° |
| 2026-05-07 20:44 | 44.94675 | 4.37303 | 39014 ft | 454 kts | 136° |
| 2026-05-07 20:44 | 44.90431 | 4.43833 | 38995 ft | 454 kts | 136° |
| 2026-05-07 20:45 | 44.86150 | 4.50380 | 39000 ft | 454 kts | 136° |
| 2026-05-07 20:45 | 44.81864 | 4.56914 | 39003 ft | 454 kts | 136° |
| 2026-05-07 20:46 | 44.77573 | 4.63452 | 38997 ft | 455 kts | 136° |
| 2026-05-07 20:46 | 44.73283 | 4.69991 | 38996 ft | 455 kts | 136° |
| 2026-05-07 20:47 | 44.68984 | 4.76517 | 38804 ft | 454 kts | 136° |
| 2026-05-07 20:47 | 44.66835 | 4.79766 | 38568 ft | 453 kts | 137° |
| 2026-05-07 20:47 | 44.64688 | 4.83000 | 38282 ft | 453 kts | 137° |
| 2026-05-07 20:47 | 44.62550 | 4.86248 | 37949 ft | 453 kts | 136° |
| 2026-05-07 20:48 | 44.60444 | 4.89549 | 37253 ft | 454 kts | 136° |
| 2026-05-07 20:48 | 44.58367 | 4.92890 | 36553 ft | 455 kts | 136° |
| 2026-05-07 20:48 | 44.56295 | 4.96260 | 35738 ft | 458 kts | 136° |
| 2026-05-07 20:48 | 44.54225 | 4.99628 | 35246 ft | 453 kts | 137° |
| 2026-05-07 20:49 | 44.52167 | 5.02952 | 34701 ft | 450 kts | 138° |
| 2026-05-07 20:49 | 44.50112 | 5.06242 | 34138 ft | 447 kts | 139° |
| 2026-05-07 20:49 | 44.48064 | 5.09502 | 33682 ft | 442 kts | 139° |
| 2026-05-07 20:49 | 44.46045 | 5.12712 | 33399 ft | 438 kts | 139° |
| 2026-05-07 20:50 | 44.44039 | 5.15899 | 33071 ft | 434 kts | 139° |
| 2026-05-07 20:50 | 44.42043 | 5.19055 | 32750 ft | 432 kts | 139° |
| 2026-05-07 20:50 | 44.40052 | 5.22192 | 32423 ft | 430 kts | 139° |
| 2026-05-07 20:50 | 44.38071 | 5.25300 | 32101 ft | 426 kts | 140° |
| 2026-05-07 20:51 | 44.35921 | 5.28067 | 31718 ft | 416 kts | 149° |
| 2026-05-07 20:51 | 44.33650 | 5.30556 | 31230 ft | 413 kts | 149° |
| 2026-05-07 20:51 | 44.31391 | 5.33018 | 30767 ft | 410 kts | 149° |
| 2026-05-07 20:51 | 44.29146 | 5.35458 | 30301 ft | 408 kts | 148° |
| 2026-05-07 20:52 | 44.26909 | 5.37883 | 29822 ft | 406 kts | 148° |
| 2026-05-07 20:52 | 44.24686 | 5.40294 | 29358 ft | 403 kts | 148° |
| 2026-05-07 20:52 | 44.22478 | 5.42689 | 28905 ft | 400 kts | 148° |
| 2026-05-07 20:52 | 44.20290 | 5.45060 | 28460 ft | 397 kts | 148° |
| 2026-05-07 20:53 | 44.18144 | 5.47388 | 28016 ft | 394 kts | 148° |
| 2026-05-07 20:53 | 44.15987 | 5.49726 | 27588 ft | 391 kts | 148° |
| 2026-05-07 20:53 | 44.13844 | 5.52047 | 27146 ft | 389 kts | 147° |
| 2026-05-07 20:53 | 44.11721 | 5.54348 | 26714 ft | 386 kts | 147° |
| 2026-05-07 20:54 | 44.09615 | 5.56631 | 26280 ft | 383 kts | 147° |
| 2026-05-07 20:54 | 44.07521 | 5.58900 | 25848 ft | 380 kts | 147° |
| 2026-05-07 20:54 | 44.05443 | 5.61149 | 25420 ft | 377 kts | 147° |
| 2026-05-07 20:54 | 44.03380 | 5.63371 | 25002 ft | 374 kts | 147° |
| 2026-05-07 20:55 | 44.01329 | 5.65581 | 24589 ft | 372 kts | 147° |
| 2026-05-07 20:55 | 43.99290 | 5.67780 | 24160 ft | 370 kts | 147° |
| 2026-05-07 20:55 | 43.97265 | 5.69957 | 23755 ft | 367 kts | 147° |
| 2026-05-07 20:55 | 43.95251 | 5.72117 | 23297 ft | 365 kts | 146° |
| 2026-05-07 20:56 | 43.93247 | 5.74271 | 22885 ft | 363 kts | 146° |
| 2026-05-07 20:56 | 43.91254 | 5.76411 | 22480 ft | 361 kts | 146° |
| 2026-05-07 20:56 | 43.89277 | 5.78529 | 22077 ft | 358 kts | 146° |
| 2026-05-07 20:56 | 43.87310 | 5.80634 | 21667 ft | 356 kts | 146° |
| 2026-05-07 20:57 | 43.85357 | 5.82721 | 21255 ft | 354 kts | 146° |
| 2026-05-07 20:57 | 43.83415 | 5.84793 | 20873 ft | 351 kts | 146° |
| 2026-05-07 20:57 | 43.81484 | 5.86853 | 20484 ft | 349 kts | 145° |
| 2026-05-07 20:57 | 43.79568 | 5.88896 | 20092 ft | 347 kts | 146° |
| 2026-05-07 20:58 | 43.77658 | 5.90918 | 19718 ft | 344 kts | 146° |
| 2026-05-07 20:58 | 43.75758 | 5.92921 | 19324 ft | 342 kts | 146° |
| 2026-05-07 20:58 | 43.73864 | 5.94904 | 18939 ft | 340 kts | 146° |
| 2026-05-07 20:58 | 43.71986 | 5.96872 | 18562 ft | 338 kts | 146° |
| 2026-05-07 20:59 | 43.70119 | 5.98836 | 18162 ft | 336 kts | 145° |
| 2026-05-07 20:59 | 43.68274 | 6.00788 | 17922 ft | 331 kts | 145° |
| 2026-05-07 20:59 | 43.66455 | 6.02716 | 17496 ft | 329 kts | 145° |
| 2026-05-07 20:59 | 43.64650 | 6.04637 | 17143 ft | 326 kts | 145° |
| 2026-05-07 21:00 | 43.62860 | 6.06542 | 16739 ft | 324 kts | 145° |
| 2026-05-07 21:00 | 43.61088 | 6.08460 | 16321 ft | 324 kts | 141° |
| 2026-05-07 21:00 | 43.59615 | 6.10805 | 15915 ft | 325 kts | 125° |
| 2026-05-07 21:00 | 43.58592 | 6.13586 | 15506 ft | 327 kts | 112° |
| 2026-05-07 21:01 | 43.57851 | 6.16542 | 15172 ft | 325 kts | 112° |
| 2026-05-07 21:01 | 43.57065 | 6.19455 | 14730 ft | 325 kts | 113° |
| 2026-05-07 21:01 | 43.56237 | 6.22369 | 14264 ft | 327 kts | 112° |
| 2026-05-07 21:01 | 43.55414 | 6.25288 | 13858 ft | 326 kts | 112° |
| 2026-05-07 21:02 | 43.54589 | 6.28204 | 13379 ft | 326 kts | 112° |
| 2026-05-07 21:02 | 43.53782 | 6.31118 | 12957 ft | 325 kts | 112° |
| 2026-05-07 21:02 | 43.52983 | 6.34012 | 12548 ft | 322 kts | 112° |
| 2026-05-07 21:02 | 43.52194 | 6.36878 | 12252 ft | 316 kts | 111° |
| 2026-05-07 21:03 | 43.51422 | 6.39682 | 12004 ft | 309 kts | 112° |
| 2026-05-07 21:03 | 43.50652 | 6.42418 | 11745 ft | 303 kts | 112° |
| 2026-05-07 21:03 | 43.50007 | 6.45151 | 11491 ft | 299 kts | 101° |
| 2026-05-07 21:03 | 43.49714 | 6.47963 | 11219 ft | 295 kts | 98° |
| 2026-05-07 21:04 | 43.49462 | 6.50751 | 10958 ft | 292 kts | 98° |
| 2026-05-07 21:04 | 43.49215 | 6.53521 | 10692 ft | 290 kts | 98° |
| 2026-05-07 21:04 | 43.48960 | 6.56272 | 10467 ft | 289 kts | 98° |
| 2026-05-07 21:04 | 43.48695 | 6.59008 | 10183 ft | 287 kts | 98° |
| 2026-05-07 21:05 | 43.48424 | 6.61722 | 9858 ft | 286 kts | 98° |
| 2026-05-07 21:05 | 43.48157 | 6.64426 | 9491 ft | 284 kts | 98° |
| 2026-05-07 21:05 | 43.47895 | 6.67074 | 9181 ft | 282 kts | 98° |
| 2026-05-07 21:05 | 43.47629 | 6.69744 | 8899 ft | 281 kts | 98° |
| 2026-05-07 21:06 | 43.47359 | 6.72402 | 8601 ft | 280 kts | 98° |
| 2026-05-07 21:06 | 43.47086 | 6.75051 | 8273 ft | 278 kts | 98° |
| 2026-05-07 21:06 | 43.46824 | 6.77682 | 7956 ft | 277 kts | 97° |
| 2026-05-07 21:06 | 43.46583 | 6.80310 | 7650 ft | 276 kts | 97° |
| 2026-05-07 21:07 | 43.46264 | 6.82910 | 7357 ft | 275 kts | 101° |
| 2026-05-07 21:07 | 43.45859 | 6.85476 | 7077 ft | 275 kts | 103° |
| 2026-05-07 21:07 | 43.45410 | 6.88028 | 6791 ft | 274 kts | 104° |
| 2026-05-07 21:07 | 43.44973 | 6.90575 | 6466 ft | 273 kts | 102° |
| 2026-05-07 21:08 | 43.44570 | 6.93116 | 6165 ft | 272 kts | 102° |
| 2026-05-07 21:08 | 43.44188 | 6.95659 | 5865 ft | 270 kts | 101° |
| 2026-05-07 21:08 | 43.43825 | 6.98152 | 5617 ft | 261 kts | 101° |
| 2026-05-07 21:08 | 43.43472 | 7.00523 | 5459 ft | 245 kts | 102° |
| 2026-05-07 21:09 | 43.43132 | 7.02730 | 5268 ft | 227 kts | 102° |
| 2026-05-07 21:09 | 43.42819 | 7.04807 | 5104 ft | 218 kts | 102° |
| 2026-05-07 21:09 | 43.42506 | 7.06812 | 4967 ft | 211 kts | 102° |
| 2026-05-07 21:09 | 43.42207 | 7.08761 | 4832 ft | 205 kts | 97° |
| 2026-05-07 21:10 | 43.42320 | 7.10684 | 4647 ft | 202 kts | 72° |
| 2026-05-07 21:10 | 43.42986 | 7.12377 | 4409 ft | 202 kts | 50° |
| 2026-05-07 21:10 | 43.44007 | 7.13693 | 4177 ft | 202 kts | 41° |
| 2026-05-07 21:10 | 43.45050 | 7.14935 | 4032 ft | 193 kts | 41° |
| 2026-05-07 21:11 | 43.46158 | 7.15938 | 3717 ft | 193 kts | 21° |
| 2026-05-07 21:11 | 43.47466 | 7.16241 | 3403 ft | 191 kts | 1° |
| 2026-05-07 21:11 | 43.49676 | 7.16036 | 2996 ft | 190 kts | 356° |
| 2026-05-07 21:12 | 43.51000 | 7.15904 | 2980 ft | 188 kts | 356° |
| 2026-05-07 21:12 | 43.52262 | 7.15776 | 2737 ft | 177 kts | 356° |
| 2026-05-07 21:12 | 43.53428 | 7.15653 | 2557 ft | 157 kts | 356° |
| 2026-05-07 21:12 | 43.54473 | 7.15518 | 2348 ft | 146 kts | 354° |
| 2026-05-07 21:13 | 43.55461 | 7.15373 | 2149 ft | 141 kts | 355° |
| 2026-05-07 21:13 | 43.56430 | 7.15250 | 1968 ft | 139 kts | 356° |
| 2026-05-07 21:13 | 43.57389 | 7.15129 | 1771 ft | 138 kts | 355° |
| 2026-05-07 21:13 | 43.58342 | 7.14979 | 1578 ft | 137 kts | 354° |
| 2026-05-07 21:14 | 43.59286 | 7.14817 | 1420 ft | 137 kts | 354° |
| 2026-05-07 21:14 | 43.60233 | 7.14723 | 1262 ft | 136 kts | 6° |
| 2026-05-07 21:14 | 43.61131 | 7.15081 | 1062 ft | 135 kts | 27° |
| 2026-05-07 21:14 | 43.61867 | 7.15849 | 828 ft | 132 kts | 46° |
| 2026-05-07 21:15 | 43.62522 | 7.16732 | 726 ft | 132 kts | 44° |
| 2026-05-07 21:15 | 43.63180 | 7.17632 | 538 ft | 133 kts | 43° |
| 2026-05-07 21:15 | 43.63827 | 7.18549 | 342 ft | 133 kts | 41° |
| 2026-05-07 21:15 | 43.64484 | 7.19444 | 207 ft | 133 kts | 43° |
| 2026-05-07 21:16 | 43.65139 | 7.20346 | 67 ft | 133 kts | 42° |
| 2026-05-07 21:16 | 43.65771 | 7.21215 | 24 ft | 115 kts | 46° |
| 2026-05-07 21:16 | 43.66208 | 7.21816 | 22 ft | 51 kts | 45° |
| 2026-05-07 21:16 | 43.66370 | 7.21987 | 25 ft | 27 kts | 26° |
| 2026-05-07 21:17 | 43.66540 | 7.22042 | 23 ft | 21 kts | 327° |
| 2026-05-07 21:17 | 43.66500 | 7.21898 | 22 ft | 19 kts | 226° |
| 2026-05-07 21:17 | 43.66402 | 7.21764 | 22 ft | 21 kts | 225° |
| 2026-05-07 21:17 | 43.66284 | 7.21601 | 22 ft | 28 kts | 224° |
| 2026-05-07 21:18 | 43.66145 | 7.21409 | 22 ft | 30 kts | 225° |
| 2026-05-07 21:18 | 43.66009 | 7.21222 | 22 ft | 28 kts | 225° |
| 2026-05-07 21:18 | 43.65873 | 7.21035 | 22 ft | 26 kts | 225° |
| 2026-05-07 21:18 | 43.65804 | 7.20883 | 22 ft | 13 kts | 299° |
| 2026-05-07 21:19 | 43.65914 | 7.20841 | 22 ft | 21 kts | 351° |
| 2026-05-07 21:19 | 43.66069 | 7.20806 | 22 ft | 24 kts | 351° |
| 2026-05-07 21:19 | 43.66221 | 7.20772 | 22 ft | 8 kts | 351° |
| 2026-05-07 21:19 | 43.66232 | 7.20716 | 22 ft | 6 kts | 264° |
| 2026-05-07 21:20 | 43.66227 | 7.20667 | 22 ft | 0 kts | 260° |